Time;durP1;ratioP1;P1;durP2;ratioP2;P2;SDS_P1;SDS_P2;PMS_P1;PMS_P2;Temp;Humidity;BMP_temperature;BMP_pressure;BME280_temperature;BME280_humidity;BME280_pressure;Samples;Min_cycle;Max_cycle;Signal;HPM_P1;HPM_P2
2023/04/06 00:00:22;;;;;;;22.53;13.80;;;7.60;95.10;;;;;;5045602;28;20618;-34
2023/04/06 00:02:51;;;;;;;19.47;12.37;;;7.60;95.20;;;;;;5044234;28;20270;-33
2023/04/06 00:05:20;;;;;;;20.67;12.77;;;7.60;95.20;;;;;;5028348;28;20200;-33
2023/04/06 00:07:47;;;;;;;21.33;13.10;;;7.60;95.20;;;;;;5049205;28;20255;-35
2023/04/06 00:10:15;;;;;;;21.63;13.33;;;7.60;95.20;;;;;;5047890;28;20716;-35
2023/04/06 00:12:45;;;;;;;19.00;13.57;;;7.60;95.20;;;;;;5049143;28;20248;-33
2023/04/06 00:15:12;;;;;;;20.03;12.53;;;7.60;95.20;;;;;;5048963;28;20203;-33
2023/04/06 00:17:40;;;;;;;18.70;13.20;;;7.50;95.10;;;;;;5049409;28;20878;-34
2023/04/06 00:20:13;;;;;;;20.37;14.27;;;7.50;95.20;;;;;;5049391;28;20204;-34
2023/04/06 00:22:48;;;;;;;19.80;12.33;;;7.50;95.20;;;;;;5049151;28;20291;-33
2023/04/06 00:25:17;;;;;;;18.33;12.50;;;7.50;95.30;;;;;;5048932;28;20223;-34
2023/04/06 00:27:47;;;;;;;22.13;13.83;;;7.40;95.20;;;;;;5047213;28;20318;-34
2023/04/06 00:30:14;;;;;;;21.80;14.07;;;7.40;95.50;;;;;;5048754;28;20200;-34
2023/04/06 00:32:44;;;;;;;18.67;12.93;;;7.40;95.20;;;;;;5047161;28;20207;-34
2023/04/06 00:35:11;;;;;;;20.77;13.27;;;7.40;95.20;;;;;;5048693;28;20209;-35
2023/04/06 00:37:39;;;;;;;18.33;12.80;;;7.30;95.20;;;;;;5048698;28;20303;-34
2023/04/06 00:40:06;;;;;;;20.17;12.10;;;7.30;95.30;;;;;;5048789;28;20310;-34
2023/04/06 00:42:39;;;;;;;20.43;13.43;;;7.30;95.30;;;;;;5048672;28;20319;-34
2023/04/06 00:45:09;;;;;;;20.43;13.30;;;7.30;95.40;;;;;;5046947;28;20256;-34
2023/04/06 00:47:36;;;;;;;19.73;13.23;;;7.30;95.40;;;;;;5048387;28;20227;-34
2023/04/06 00:50:04;;;;;;;19.80;13.47;;;7.30;95.40;;;;;;5047065;28;20206;-33
2023/04/06 00:52:32;;;;;;;17.50;12.47;;;7.30;95.40;;;;;;5048247;28;20792;-33
2023/04/06 00:54:59;;;;;;;20.40;13.90;;;7.30;95.40;;;;;;5046733;28;20225;-34
2023/04/06 00:57:30;;;;;;;19.23;12.87;;;7.30;95.50;;;;;;5046394;28;20223;-34
2023/04/06 00:59:58;;;;;;;18.30;12.23;;;7.30;95.50;;;;;;5045739;28;20758;-34
2023/04/06 01:02:25;;;;;;;19.30;13.10;;;7.30;95.50;;;;;;5048231;28;20212;-34
2023/04/06 01:04:56;;;;;;;19.80;12.57;;;7.30;95.50;;;;;;5017280;28;20221;-34
2023/04/06 01:07:24;;;;;;;16.83;11.63;;;7.30;95.50;;;;;;5033574;28;20217;-35
2023/04/06 01:09:56;;;;;;;19.63;12.00;;;7.30;95.50;;;;;;5046866;28;20200;-34
2023/04/06 01:12:24;;;;;;;20.63;12.70;;;7.30;95.60;;;;;;5047887;28;20566;-34
2023/04/06 01:14:51;;;;;;;18.73;11.63;;;7.30;95.60;;;;;;5042523;28;20687;-34
2023/04/06 01:17:23;;;;;;;18.83;11.77;;;7.30;95.60;;;;;;5036307;28;20204;-34
2023/04/06 01:19:55;;;;;;;17.60;11.97;;;7.30;95.60;;;;;;5046189;28;20234;-33
2023/04/06 01:22:24;;;;;;;17.90;11.77;;;7.30;95.60;;;;;;5047468;28;21114;-33
2023/04/06 01:24:51;;;;;;;17.10;11.53;;;7.30;95.60;;;;;;5047211;28;20215;-34
2023/04/06 01:27:27;;;;;;;16.10;11.53;;;7.30;95.70;;;;;;5047477;28;20658;-34
2023/04/06 01:29:57;;;;;;;18.30;12.67;;;7.30;95.70;;;;;;5047615;28;20250;-34
2023/04/06 01:32:25;;;;;;;18.50;11.67;;;7.30;95.70;;;;;;5044392;28;20226;-33
2023/04/06 01:34:52;;;;;;;18.80;11.90;;;7.30;95.60;;;;;;5045811;28;20262;-33
2023/04/06 01:37:19;;;;;;;20.63;11.87;;;7.30;95.70;;;;;;5047419;28;20671;-33
2023/04/06 01:39:51;;;;;;;17.20;11.73;;;7.40;95.80;;;;;;5047728;28;20593;-33
2023/04/06 01:42:20;;;;;;;18.83;12.60;;;7.40;95.70;;;;;;5046017;28;20204;-33
2023/04/06 01:44:49;;;;;;;17.97;12.47;;;7.40;95.80;;;;;;5046361;28;20208;-33
2023/04/06 01:47:17;;;;;;;19.00;12.20;;;7.40;95.70;;;;;;5046984;28;20318;-33
2023/04/06 01:49:44;;;;;;;19.93;12.10;;;7.40;95.70;;;;;;5045662;28;20307;-34
2023/04/06 01:52:11;;;;;;;18.00;12.00;;;7.40;95.70;;;;;;5045477;28;20196;-34
2023/04/06 01:54:42;;;;;;;20.50;12.53;;;7.40;95.80;;;;;;5045622;28;20224;-33
2023/04/06 01:57:10;;;;;;;18.83;12.33;;;7.40;95.80;;;;;;5047045;28;20216;-33
2023/04/06 01:59:40;;;;;;;19.67;13.07;;;7.40;95.80;;;;;;5045509;28;20261;-33
2023/04/06 02:02:10;;;;;;;20.30;12.83;;;7.40;95.80;;;;;;5046572;28;20200;-33
2023/04/06 02:04:37;;;;;;;23.27;13.00;;;7.40;95.70;;;;;;5047807;28;20200;-34
2023/04/06 02:07:07;;;;;;;20.93;13.33;;;7.50;95.90;;;;;;5047103;28;20204;-34
2023/04/06 02:09:34;;;;;;;19.47;12.67;;;7.50;95.80;;;;;;5045405;28;20472;-33
2023/04/06 02:12:04;;;;;;;21.13;13.10;;;7.50;95.90;;;;;;5045639;28;20758;-33
2023/04/06 02:14:33;;;;;;;20.70;13.43;;;7.50;95.90;;;;;;5047073;28;20682;-33
2023/04/06 02:17:05;;;;;;;18.60;12.67;;;7.50;95.90;;;;;;5047151;28;20723;-33
2023/04/06 02:19:32;;;;;;;21.47;13.73;;;7.50;96.00;;;;;;5046597;28;20532;-33
2023/04/06 02:22:00;;;;;;;20.10;13.37;;;7.50;96.10;;;;;;5045376;28;20231;-33
2023/04/06 02:24:30;;;;;;;21.97;13.50;;;7.50;96.00;;;;;;5045535;28;20285;-33
2023/04/06 02:27:02;;;;;;;18.77;13.47;;;7.50;96.00;;;;;;5045456;28;20200;-33
2023/04/06 02:29:31;;;;;;;20.97;13.43;;;7.50;96.00;;;;;;5045990;28;20703;-34
2023/04/06 02:32:01;;;;;;;18.67;12.47;;;7.50;96.00;;;;;;5045106;28;20244;-33
2023/04/06 02:34:32;;;;;;;19.40;12.87;;;7.50;96.00;;;;;;5045010;28;20200;-33
2023/04/06 02:37:07;;;;;;;17.13;12.00;;;7.50;96.00;;;;;;5028565;28;20307;-34
2023/04/06 02:39:34;;;;;;;17.90;11.30;;;7.50;96.00;;;;;;5044905;28;20203;-34
2023/04/06 02:42:01;;;;;;;17.40;11.87;;;7.50;96.00;;;;;;5046550;28;20212;-34
2023/04/06 02:44:31;;;;;;;17.93;12.23;;;7.50;96.00;;;;;;5046015;28;20223;-33
2023/04/06 02:46:58;;;;;;;17.97;12.70;;;7.50;96.10;;;;;;5044460;28;20242;-33
2023/04/06 02:49:27;;;;;;;17.87;12.00;;;7.50;96.10;;;;;;5045887;28;20231;-33
2023/04/06 02:51:55;;;;;;;19.00;12.40;;;7.50;96.10;;;;;;5046263;28;20786;-34
2023/04/06 02:54:29;;;;;;;19.90;13.23;;;7.50;96.10;;;;;;5044247;28;20199;-34
2023/04/06 02:56:59;;;;;;;20.60;13.23;;;7.50;96.20;;;;;;5046074;28;20218;-33
2023/04/06 02:59:28;;;;;;;18.27;12.70;;;7.50;96.10;;;;;;5046056;28;20687;-33
2023/04/06 03:01:58;;;;;;;18.80;13.07;;;7.50;96.20;;;;;;5044472;28;20208;-33
2023/04/06 03:04:25;;;;;;;21.50;13.17;;;7.50;96.10;;;;;;5046025;28;20196;-33
2023/04/06 03:06:55;;;;;;;21.40;13.27;;;7.50;96.10;;;;;;5045816;28;20211;-34
2023/04/06 03:09:27;;;;;;;18.03;12.33;;;7.50;96.20;;;;;;5044516;28;20236;-34
2023/04/06 03:11:59;;;;;;;19.53;13.30;;;7.50;96.20;;;;;;5045009;28;20644;-33
2023/04/06 03:14:29;;;;;;;18.70;13.10;;;7.50;96.20;;;;;;5044131;28;20223;-33
2023/04/06 03:16:56;;;;;;;18.00;12.63;;;7.50;96.20;;;;;;5045265;28;20683;-34
2023/04/06 03:19:23;;;;;;;17.90;12.60;;;7.50;96.20;;;;;;5045575;28;20287;-34
2023/04/06 03:21:51;;;;;;;19.60;12.37;;;7.50;96.30;;;;;;5043943;28;20675;-33
2023/04/06 03:24:20;;;;;;;21.00;13.70;;;7.50;96.20;;;;;;5027850;28;20216;-33
2023/04/06 03:26:47;;;;;;;18.77;12.97;;;7.50;96.30;;;;;;5027550;28;20304;-33
2023/04/06 03:29:17;;;;;;;19.00;13.13;;;7.50;96.30;;;;;;5045101;28;20227;-33
2023/04/06 03:31:46;;;;;;;19.40;13.30;;;7.50;96.30;;;;;;5027412;28;20196;-33
2023/04/06 03:34:14;;;;;;;18.00;12.70;;;7.50;96.30;;;;;;5045278;28;20219;-34
2023/04/06 03:36:43;;;;;;;18.67;12.77;;;7.50;96.30;;;;;;5045422;28;20663;-33
2023/04/06 03:39:13;;;;;;;18.27;12.83;;;7.50;96.30;;;;;;5027697;28;20204;-34
2023/04/06 03:41:44;;;;;;;19.17;13.27;;;7.50;96.30;;;;;;5046492;28;20314;-34
2023/04/06 03:44:11;;;;;;;17.80;11.53;;;7.50;96.30;;;;;;5049446;28;20204;-34
2023/04/06 03:46:41;;;;;;;16.77;11.77;;;7.60;96.30;;;;;;5047667;28;20231;-33
2023/04/06 03:49:10;;;;;;;17.17;12.40;;;7.60;96.20;;;;;;5047638;28;20758;-34
2023/04/06 03:51:37;;;;;;;19.03;12.60;;;7.60;96.20;;;;;;5049085;28;20227;-33
2023/04/06 03:54:07;;;;;;;17.50;13.17;;;7.60;96.30;;;;;;5031529;28;20607;-33
2023/04/06 03:56:36;;;;;;;19.23;13.10;;;7.60;96.30;;;;;;5048712;28;20236;-33
2023/04/06 03:59:05;;;;;;;18.43;12.87;;;7.60;96.30;;;;;;5049047;28;20220;-33
2023/04/06 04:01:33;;;;;;;17.40;12.17;;;7.60;96.30;;;;;;5049129;28;20201;-33
2023/04/06 04:04:03;;;;;;;17.70;12.23;;;7.60;96.30;;;;;;5049294;28;20635;-33
2023/04/06 04:06:36;;;;;;;18.80;13.10;;;7.60;96.30;;;;;;5015042;28;20208;-33
2023/04/06 04:09:03;;;;;;;18.77;12.27;;;7.60;96.30;;;;;;5047814;28;20643;-33
2023/04/06 04:11:33;;;;;;;19.70;13.37;;;7.60;96.30;;;;;;5049052;28;20659;-33
2023/04/06 04:14:00;;;;;;;20.07;12.53;;;7.60;96.30;;;;;;5049117;28;20258;-36
2023/04/06 04:16:27;;;;;;;15.43;11.67;;;7.60;96.30;;;;;;5049228;28;20550;-34
2023/04/06 04:18:54;;;;;;;17.87;12.53;;;7.60;96.30;;;;;;5049103;28;20219;-33
2023/04/06 04:21:25;;;;;;;17.20;11.93;;;7.60;96.30;;;;;;5047720;28;20250;-34
2023/04/06 04:23:52;;;;;;;18.23;12.73;;;7.60;96.30;;;;;;5048733;28;20212;-33
2023/04/06 04:26:20;;;;;;;17.67;12.33;;;7.70;96.30;;;;;;5049446;28;20494;-33
2023/04/06 04:28:49;;;;;;;19.10;12.53;;;7.70;96.40;;;;;;5047161;28;20227;-33
2023/04/06 04:31:21;;;;;;;19.87;12.70;;;7.70;96.40;;;;;;5048554;28;20226;-33
2023/04/06 04:33:52;;;;;;;19.23;12.77;;;7.60;96.50;;;;;;5031027;28;20189;-33
2023/04/06 04:36:21;;;;;;;17.40;12.20;;;7.60;96.50;;;;;;5030806;28;20216;-33
2023/04/06 04:38:51;;;;;;;21.60;13.37;;;7.60;96.50;;;;;;5048188;28;20287;-33
2023/04/06 04:41:20;;;;;;;18.23;13.53;;;7.60;96.50;;;;;;5014489;28;20701;-33
2023/04/06 04:43:52;;;;;;;19.93;13.73;;;7.60;96.50;;;;;;5048268;28;20200;-33
2023/04/06 04:46:21;;;;;;;17.73;12.77;;;7.60;96.50;;;;;;5048549;28;20676;-33
2023/04/06 04:48:49;;;;;;;17.67;12.33;;;7.70;96.60;;;;;;5046762;28;20216;-34
2023/04/06 04:51:19;;;;;;;19.50;13.23;;;7.60;96.60;;;;;;5030372;28;20230;-33
2023/04/06 04:53:46;;;;;;;19.30;12.13;;;7.60;96.60;;;;;;5046877;28;20717;-34
2023/04/06 04:56:14;;;;;;;18.63;11.73;;;7.60;96.50;;;;;;5046501;28;21294;-34
2023/04/06 04:58:45;;;;;;;19.70;11.90;;;7.60;96.60;;;;;;5046928;28;20247;-33
2023/04/06 05:01:15;;;;;;;19.27;13.20;;;7.70;96.70;;;;;;5046801;28;20205;-33
2023/04/06 05:03:42;;;;;;;18.53;12.73;;;7.70;96.70;;;;;;5046669;28;20227;-34
2023/04/06 05:06:12;;;;;;;18.33;11.97;;;7.70;96.70;;;;;;5048423;28;20211;-33
2023/04/06 05:08:42;;;;;;;17.50;12.07;;;7.70;96.70;;;;;;5047675;28;20307;-33
2023/04/06 05:11:17;;;;;;;17.27;12.73;;;7.70;96.70;;;;;;5047789;28;20204;-33
2023/04/06 05:13:46;;;;;;;16.80;12.40;;;7.70;96.70;;;;;;5048024;28;20294;-33
2023/04/06 05:16:14;;;;;;;23.43;12.90;;;7.70;96.70;;;;;;5047925;28;20648;-33
2023/04/06 05:18:41;;;;;;;17.73;12.63;;;7.80;96.80;;;;;;5046478;28;20245;-34
2023/04/06 05:21:13;;;;;;;20.67;13.30;;;7.80;96.70;;;;;;5046065;28;20208;-34
2023/04/06 05:23:40;;;;;;;19.33;12.03;;;7.80;96.80;;;;;;5047875;28;20326;-35
2023/04/06 05:26:07;;;;;;;17.43;12.17;;;7.80;96.70;;;;;;5046380;28;20204;-34
2023/04/06 05:28:35;;;;;;;20.33;12.10;;;7.90;96.80;;;;;;5046133;28;20251;-33
2023/04/06 05:31:03;;;;;;;21.13;12.57;;;7.90;96.80;;;;;;5047516;28;20224;-34
2023/04/06 05:33:30;;;;;;;19.50;11.57;;;7.90;96.70;;;;;;5029697;28;20618;-33
2023/04/06 05:35:57;;;;;;;18.63;11.97;;;8.00;96.70;;;;;;5048111;28;20702;-33
2023/04/06 05:38:27;;;;;;;18.23;12.13;;;8.00;96.80;;;;;;5047457;28;20222;-33
2023/04/06 05:40:55;;;;;;;16.80;12.10;;;8.00;96.80;;;;;;5045914;28;20200;-33
2023/04/06 05:43:24;;;;;;;19.20;12.27;;;8.00;96.80;;;;;;5047548;28;20208;-33
2023/04/06 05:45:51;;;;;;;22.40;13.17;;;8.00;96.90;;;;;;5047375;28;20216;-33
2023/04/06 05:48:19;;;;;;;20.03;12.30;;;8.00;96.90;;;;;;5045446;28;20289;-33
2023/04/06 05:50:51;;;;;;;21.13;12.93;;;8.00;96.90;;;;;;5047415;28;20746;-33
2023/04/06 05:53:25;;;;;;;21.23;12.93;;;8.10;96.90;;;;;;5047189;28;20206;-33
2023/04/06 05:55:55;;;;;;;19.17;12.07;;;8.10;97.00;;;;;;5047187;28;20239;-33
2023/04/06 05:58:24;;;;;;;21.47;13.70;;;8.10;97.00;;;;;;5047680;28;20374;-33
2023/04/06 06:00:57;;;;;;;22.37;12.90;;;8.10;97.00;;;;;;5045608;28;20200;-33
2023/04/06 06:03:24;;;;;;;24.40;13.93;;;8.10;97.10;;;;;;5046110;28;20219;-34
2023/04/06 06:05:59;;;;;;;18.80;13.20;;;8.10;97.10;;;;;;5046656;28;20200;-33
2023/04/06 06:08:29;;;;;;;24.73;13.10;;;8.20;97.10;;;;;;5046637;28;20561;-32
2023/04/06 06:10:56;;;;;;;24.63;13.43;;;8.20;97.20;;;;;;5045011;28;20210;-34
2023/04/06 06:13:24;;;;;;;24.43;13.63;;;8.30;97.20;;;;;;5045027;28;20792;-33
2023/04/06 06:15:51;;;;;;;23.40;13.10;;;8.30;97.20;;;;;;5045162;28;20196;-33
2023/04/06 06:18:20;;;;;;;20.77;13.10;;;8.40;97.20;;;;;;5044869;28;20603;-34
2023/04/06 06:20:47;;;;;;;20.13;13.07;;;8.50;97.30;;;;;;5028766;28;20575;-34
2023/04/06 06:23:15;;;;;;;23.07;14.03;;;8.50;97.30;;;;;;5046270;28;20232;-33
2023/04/06 06:25:42;;;;;;;27.23;12.87;;;8.60;97.40;;;;;;5044863;28;20565;-33
2023/04/06 06:28:09;;;;;;;23.83;12.33;;;8.60;97.40;;;;;;5028550;28;20234;-33
2023/04/06 06:30:38;;;;;;;21.80;13.30;;;8.70;97.40;;;;;;5046396;28;20196;-33
2023/04/06 06:33:08;;;;;;;19.30;13.03;;;8.70;97.40;;;;;;5046739;28;20208;-34
2023/04/06 06:35:35;;;;;;;22.17;13.17;;;8.80;97.50;;;;;;5046369;28;20220;-33
2023/04/06 06:38:05;;;;;;;20.20;12.70;;;8.80;97.50;;;;;;5044612;28;20212;-33
2023/04/06 06:40:36;;;;;;;20.60;12.27;;;8.90;97.60;;;;;;5045864;28;20204;-33
2023/04/06 06:43:08;;;;;;;22.80;12.03;;;8.90;97.60;;;;;;5046468;28;20202;-33
2023/04/06 06:45:35;;;;;;;21.27;12.40;;;9.00;97.60;;;;;;5046457;28;20208;-32
2023/04/06 06:48:07;;;;;;;20.27;12.93;;;9.00;97.70;;;;;;5044819;28;20262;-33
2023/04/06 06:50:37;;;;;;;21.37;13.03;;;9.10;97.70;;;;;;5046519;28;20287;-33
2023/04/06 06:53:07;;;;;;;22.57;12.80;;;9.10;97.70;;;;;;5046268;28;20196;-33
2023/04/06 06:55:36;;;;;;;19.57;12.60;;;9.10;97.80;;;;;;5027930;28;20331;-32
2023/04/06 06:58:04;;;;;;;24.53;12.93;;;9.20;97.80;;;;;;5046213;28;20212;-33
2023/04/06 07:00:35;;;;;;;20.13;12.70;;;9.30;97.80;;;;;;5028622;28;20208;-33
2023/04/06 07:03:02;;;;;;;23.87;12.10;;;9.30;97.80;;;;;;5028840;28;20207;-33
2023/04/06 07:05:35;;;;;;;20.07;12.17;;;9.30;97.80;;;;;;5044468;28;20251;-33
2023/04/06 07:08:02;;;;;;;24.10;11.77;;;9.40;97.90;;;;;;5046094;28;20243;-35
2023/04/06 07:10:35;;;;;;;22.23;11.97;;;9.40;97.90;;;;;;5045999;28;20235;-34
2023/04/06 07:13:02;;;;;;;20.50;12.07;;;9.40;97.90;;;;;;5046364;28;20743;-33
2023/04/06 07:15:31;;;;;;;20.87;12.23;;;9.50;98.00;;;;;;5047628;28;20203;-32
2023/04/06 07:17:59;;;;;;;22.03;12.80;;;9.50;98.30;;;;;;5048480;28;20215;-32
2023/04/06 07:20:28;;;;;;;18.50;11.93;;;9.50;98.00;;;;;;5032097;28;20204;-33
2023/04/06 07:22:55;;;;;;;20.83;12.90;;;9.60;98.00;;;;;;5048592;28;20765;-33
2023/04/06 07:25:25;;;;;;;18.37;12.73;;;9.60;98.00;;;;;;5048738;28;20649;-33
2023/04/06 07:27:55;;;;;;;22.37;12.60;;;9.60;98.10;;;;;;5049548;28;20201;-34
2023/04/06 07:30:22;;;;;;;21.93;12.60;;;9.70;98.20;;;;;;5047641;28;20239;-33
2023/04/06 07:32:49;;;;;;;18.47;12.70;;;9.70;98.20;;;;;;5047854;28;20223;-32
2023/04/06 07:35:24;;;;;;;19.57;12.03;;;9.70;98.30;;;;;;5047606;28;20208;-33
2023/04/06 07:37:52;;;;;;;18.47;12.77;;;9.70;98.30;;;;;;5049335;28;20214;-33
2023/04/06 07:40:19;;;;;;;23.57;13.23;;;9.80;98.40;;;;;;5047500;28;20242;-33
2023/04/06 07:42:46;;;;;;;19.27;13.07;;;9.80;98.40;;;;;;5047441;28;20238;-33
2023/04/06 07:45:21;;;;;;;18.67;13.27;;;9.80;98.50;;;;;;5047254;28;20204;-32
2023/04/06 07:47:49;;;;;;;16.87;12.77;;;9.80;98.60;;;;;;5048735;28;20204;-33
2023/04/06 07:50:24;;;;;;;18.10;13.17;;;9.80;98.60;;;;;;5047779;28;20262;-32
2023/04/06 07:52:53;;;;;;;18.23;13.33;;;9.90;98.70;;;;;;5049117;28;20499;-34
2023/04/06 07:55:21;;;;;;;20.83;13.40;;;9.90;98.80;;;;;;5049266;28;20289;-34
2023/04/06 07:57:48;;;;;;;20.50;13.33;;;9.90;98.80;;;;;;5031356;28;20303;-34
2023/04/06 08:00:17;;;;;;;23.37;12.87;;;10.00;98.50;;;;;;5049464;28;20610;-33
2023/04/06 08:02:44;;;;;;;18.17;12.70;;;10.00;98.50;;;;;;5047579;28;20205;-33
2023/04/06 08:05:12;;;;;;;22.87;14.23;;;10.10;98.60;;;;;;5048846;28;20609;-34
2023/04/06 08:07:42;;;;;;;18.97;13.13;;;10.20;98.80;;;;;;5048790;28;20200;-33
2023/04/06 08:10:10;;;;;;;19.77;12.87;;;10.20;98.80;;;;;;5046769;28;20227;-35
2023/04/06 08:12:40;;;;;;;19.57;13.33;;;10.30;99.00;;;;;;5047738;28;20570;-33
2023/04/06 08:15:07;;;;;;;18.07;12.67;;;10.40;99.00;;;;;;5047431;28;20635;-32
2023/04/06 08:17:35;;;;;;;17.67;13.27;;;10.40;99.00;;;;;;5049364;28;20196;-33
2023/04/06 08:20:03;;;;;;;17.83;11.87;;;10.50;99.20;;;;;;5048664;28;20709;-34
2023/04/06 08:22:34;;;;;;;21.13;12.60;;;10.50;99.20;;;;;;5047343;28;20227;-33
2023/04/06 08:25:03;;;;;;;17.63;12.37;;;10.60;99.40;;;;;;5047449;28;20219;-36
2023/04/06 08:27:33;;;;;;;18.90;12.57;;;10.60;99.40;;;;;;5030444;28;20200;-33
2023/04/06 08:30:03;;;;;;;16.30;10.73;;;10.60;99.50;;;;;;5048669;28;20228;-33
2023/04/06 08:32:30;;;;;;;14.63;11.33;;;10.70;99.50;;;;;;5047014;28;20598;-33
2023/04/06 08:35:00;;;;;;;17.47;11.13;;;10.80;99.70;;;;;;5047257;28;20295;-32
2023/04/06 08:37:30;;;;;;;14.73;11.43;;;10.80;99.70;;;;;;5048403;28;20287;-33
2023/04/06 08:39:59;;;;;;;20.10;11.63;;;10.90;99.80;;;;;;5047342;28;20230;-33
2023/04/06 08:42:34;;;;;;;16.00;10.37;;;11.00;99.90;;;;;;5046740;28;20200;-33
2023/04/06 08:45:07;;;;;;;16.80;10.30;;;11.00;99.90;;;;;;5047063;28;20285;-33
2023/04/06 08:47:37;;;;;;;15.13;10.30;;;11.00;99.90;;;;;;5048710;28;20257;-32
2023/04/06 08:50:05;;;;;;;14.97;9.87;;;11.10;99.90;;;;;;5046697;28;20239;-33
2023/04/06 08:52:40;;;;;;;13.93;9.70;;;11.10;99.90;;;;;;5048468;28;20216;-33
2023/04/06 08:55:08;;;;;;;15.77;9.40;;;11.20;99.90;;;;;;5047814;28;20322;-32
2023/04/06 08:57:36;;;;;;;14.47;9.97;;;11.30;99.90;;;;;;5048133;28;20299;-33
2023/04/06 09:00:05;;;;;;;13.20;9.27;;;11.30;99.90;;;;;;5046817;28;20204;-32
2023/04/06 09:02:33;;;;;;;13.40;9.23;;;11.40;99.90;;;;;;5046909;28;21071;-32
2023/04/06 09:05:03;;;;;;;12.67;9.40;;;11.40;99.90;;;;;;5046312;28;20262;-32
2023/04/06 09:07:31;;;;;;;12.80;9.13;;;11.50;99.90;;;;;;5048070;28;20204;-33
2023/04/06 09:10:01;;;;;;;11.67;8.50;;;11.50;99.90;;;;;;5047941;28;20232;-32
2023/04/06 09:12:32;;;;;;;12.70;8.80;;;11.60;99.90;;;;;;5046158;28;20200;-32
2023/04/06 09:15:01;;;;;;;12.30;8.63;;;11.60;99.90;;;;;;5047814;28;20618;-32
2023/04/06 09:17:33;;;;;;;14.33;9.50;;;11.70;99.90;;;;;;5048041;28;20220;-33
2023/04/06 09:20:03;;;;;;;12.07;9.30;;;11.70;99.90;;;;;;5046312;28;20770;-32
2023/04/06 09:22:38;;;;;;;11.83;8.80;;;11.80;99.90;;;;;;5047484;28;20486;-33
2023/04/06 09:25:06;;;;;;;12.43;9.03;;;11.80;99.90;;;;;;5047383;28;20196;-32
2023/04/06 09:27:35;;;;;;;13.77;10.00;;;11.80;99.90;;;;;;5045726;28;20254;-33
2023/04/06 09:30:07;;;;;;;12.53;9.30;;;11.90;99.90;;;;;;5029381;28;20320;-34
2023/04/06 09:32:51;;;;;;;13.97;9.37;;;11.90;99.90;;;;;;5045755;28;20204;-35
2023/04/06 09:35:20;;;;;;;11.90;9.30;;;12.00;99.90;;;;;;5047257;28;20196;-34
2023/04/06 09:37:50;;;;;;;13.77;9.60;;;12.00;99.90;;;;;;5045148;28;20484;-35
2023/04/06 09:40:22;;;;;;;15.20;9.93;;;12.10;99.90;;;;;;5048007;28;20210;-33
2023/04/06 09:42:52;;;;;;;14.20;9.80;;;12.10;99.90;;;;;;5047791;28;20312;-35
2023/04/06 09:45:25;;;;;;;18.13;9.83;;;12.10;99.90;;;;;;5047636;28;20216;-33
2023/04/06 09:47:56;;;;;;;12.23;9.37;;;12.20;99.90;;;;;;5045833;28;20580;-34
2023/04/06 09:50:25;;;;;;;14.57;10.20;;;12.20;99.90;;;;;;5029504;28;20723;-34
2023/04/06 09:52:58;;;;;;;12.27;9.63;;;12.20;99.90;;;;;;5045654;28;20761;-34
2023/04/06 09:55:37;;;;;;;12.53;9.33;;;12.20;99.90;;;;;;5028791;28;20676;-34
2023/04/06 09:58:06;;;;;;;12.87;9.27;;;12.20;99.90;;;;;;5045219;28;20208;-34
2023/04/06 10:00:54;;;;;;;13.17;9.40;;;12.30;99.90;;;;;;5029128;28;20862;-34
2023/04/06 10:03:49;;;;;;;14.07;10.10;;;12.30;99.90;;;;;;5046953;28;20631;-34
2023/04/06 10:06:23;;;;;;;13.83;9.97;;;12.40;99.90;;;;;;5046731;28;20293;-33
2023/04/06 10:08:55;;;;;;;15.10;10.03;;;12.40;99.90;;;;;;5046738;28;20694;-34
2023/04/06 10:11:22;;;;;;;14.77;9.63;;;12.40;99.90;;;;;;5045302;28;20232;-34
2023/04/06 10:13:50;;;;;;;13.03;9.63;;;12.50;99.90;;;;;;5044853;28;20200;-34
2023/04/06 10:16:21;;;;;;;14.13;9.60;;;12.50;99.90;;;;;;5047050;28;20634;-34
2023/04/06 10:18:57;;;;;;;12.93;9.33;;;12.50;99.90;;;;;;5045118;28;20249;-34
2023/04/06 10:21:31;;;;;;;11.73;8.67;;;12.60;99.90;;;;;;5046942;28;20257;-34
2023/04/06 10:24:06;;;;;;;11.03;8.50;;;12.60;99.90;;;;;;5029092;28;20208;-34
2023/04/06 10:26:36;;;;;;;9.13;7.77;;;12.60;99.90;;;;;;5045018;28;20287;-34
2023/04/06 10:29:05;;;;;;;13.40;8.27;;;12.60;99.90;;;;;;5046078;28;20667;-33
2023/04/06 10:31:39;;;;;;;10.17;8.03;;;12.50;99.90;;;;;;5046485;28;20220;-33
2023/04/06 10:34:07;;;;;;;10.70;8.17;;;12.60;99.90;;;;;;5046449;28;20307;-34
2023/04/06 10:36:37;;;;;;;11.23;7.77;;;12.50;99.90;;;;;;5046504;28;20196;-34
2023/04/06 10:39:06;;;;;;;10.13;8.23;;;12.50;99.90;;;;;;5045007;28;20217;-34
2023/04/06 10:41:41;;;;;;;11.57;7.93;;;12.50;99.90;;;;;;5046548;28;20690;-33
2023/04/06 10:44:20;;;;;;;9.60;7.90;;;12.50;99.90;;;;;;5044967;28;20200;-34
2023/04/06 10:47:00;;;;;;;10.70;7.70;;;12.50;99.90;;;;;;5044878;28;20203;-34
2023/04/06 10:49:30;;;;;;;9.40;7.50;;;12.50;99.90;;;;;;5045746;28;20223;-33
2023/04/06 10:51:57;;;;;;;9.63;7.53;;;12.40;99.90;;;;;;5045734;28;20200;-34
2023/04/06 10:54:28;;;;;;;10.10;7.73;;;12.40;99.90;;;;;;5045843;28;20253;-34
2023/04/06 10:56:58;;;;;;;11.60;8.10;;;12.50;99.90;;;;;;5046157;28;20672;-34
2023/04/06 10:59:28;;;;;;;11.13;8.60;;;12.50;99.90;;;;;;5044633;28;20598;-33
2023/04/06 11:01:58;;;;;;;10.87;8.17;;;12.50;99.90;;;;;;5045770;28;20211;-33
2023/04/06 11:04:25;;;;;;;11.70;8.77;;;12.60;99.90;;;;;;5044432;28;20207;-33
2023/04/06 11:06:55;;;;;;;15.80;8.40;;;12.60;99.90;;;;;;5045947;28;20216;-33
2023/04/06 11:09:27;;;;;;;12.23;8.30;;;12.60;99.90;;;;;;5046164;28;20607;-33
2023/04/06 11:11:58;;;;;;;11.77;8.30;;;12.60;99.90;;;;;;5044586;28;20215;-33
2023/04/06 11:14:26;;;;;;;10.40;8.67;;;12.70;99.90;;;;;;5045755;28;20211;-33
2023/04/06 11:16:54;;;;;;;10.30;8.60;;;12.70;99.90;;;;;;5045885;28;20397;-33
2023/04/06 11:19:21;;;;;;;8.80;7.70;;;12.70;99.90;;;;;;5046048;28;20196;-33
2023/04/06 11:21:53;;;;;;;8.93;7.60;;;12.70;99.90;;;;;;5045700;28;20208;-33
2023/04/06 11:24:24;;;;;;;11.77;7.90;;;12.70;99.90;;;;;;5044498;28;20262;-32
2023/04/06 11:26:56;;;;;;;10.67;8.53;;;12.80;99.90;;;;;;5045363;28;20204;-33
2023/04/06 11:29:26;;;;;;;10.60;8.20;;;12.80;99.90;;;;;;5045783;28;20192;-32
2023/04/06 11:32:00;;;;;;;12.10;8.20;;;12.80;99.90;;;;;;5045895;28;20330;-33
2023/04/06 11:34:30;;;;;;;12.43;8.10;;;12.80;99.90;;;;;;5046391;28;20636;-32
2023/04/06 11:37:04;;;;;;;11.97;8.23;;;12.80;99.90;;;;;;5044310;28;20240;-33
2023/04/06 11:39:47;;;;;;;12.57;8.33;;;12.80;99.90;;;;;;5045984;28;20296;-33
2023/04/06 11:42:29;;;;;;;9.43;8.03;;;12.80;99.90;;;;;;5045824;28;20215;-33
2023/04/06 11:44:58;;;;;;;8.50;7.47;;;12.80;99.90;;;;;;5027952;28;20204;-33
2023/04/06 11:47:30;;;;;;;9.13;7.73;;;12.70;99.90;;;;;;5045572;28;20208;-33
2023/04/06 11:50:12;;;;;;;10.40;8.13;;;12.80;99.90;;;;;;5043960;28;20224;-33
2023/04/06 11:52:43;;;;;;;11.93;8.07;;;12.80;99.90;;;;;;5045512;28;20608;-32
2023/04/06 11:55:16;;;;;;;9.87;7.50;;;12.80;99.90;;;;;;5043863;28;20241;-33
2023/04/06 11:57:45;;;;;;;10.77;7.77;;;12.80;99.90;;;;;;5044151;28;20196;-33
2023/04/06 12:00:12;;;;;;;10.40;7.20;;;12.80;99.90;;;;;;5043838;28;20243;-32
2023/04/06 12:02:48;;;;;;;11.47;8.20;;;12.80;99.90;;;;;;5048292;28;20220;-33
2023/04/06 12:05:16;;;;;;;8.30;6.80;;;12.80;99.90;;;;;;5047565;28;20270;-32
2023/04/06 12:07:43;;;;;;;10.93;7.50;;;12.80;99.90;;;;;;5031374;28;20745;-33
2023/04/06 12:10:10;;;;;;;12.43;7.33;;;12.80;99.90;;;;;;5049119;28;20224;-33
2023/04/06 12:12:38;;;;;;;9.53;7.13;;;12.80;99.90;;;;;;5049063;28;20300;-33
2023/04/06 12:15:12;;;;;;;8.77;7.07;;;12.80;99.90;;;;;;5048835;28;20227;-33
2023/04/06 12:17:40;;;;;;;9.67;7.77;;;12.80;99.90;;;;;;5049028;28;20279;-32
2023/04/06 12:20:07;;;;;;;9.93;7.07;;;12.80;99.90;;;;;;5049083;28;20681;-33
2023/04/06 12:22:54;;;;;;;8.93;7.47;;;12.80;99.90;;;;;;5048977;28;20208;-31
2023/04/06 12:25:21;;;;;;;9.70;7.33;;;12.80;99.90;;;;;;5031136;28;20196;-33
2023/04/06 12:27:58;;;;;;;8.40;7.13;;;12.80;99.90;;;;;;5047463;28;20222;-33
2023/04/06 12:30:30;;;;;;;9.67;7.60;;;12.80;99.90;;;;;;5047383;28;20216;-33
2023/04/06 12:32:57;;;;;;;9.43;7.57;;;12.80;99.90;;;;;;5031078;28;20223;-33
2023/04/06 12:35:33;;;;;;;11.13;7.67;;;12.80;99.90;;;;;;5048144;28;20230;-35
2023/04/06 12:38:00;;;;;;;9.47;7.60;;;12.90;99.90;;;;;;5046289;28;20695;-33
2023/04/06 12:40:27;;;;;;;11.90;7.50;;;12.90;99.90;;;;;;5046452;28;20635;-33
2023/04/06 12:42:57;;;;;;;11.70;7.27;;;12.90;99.90;;;;;;5046715;28;20583;-33
2023/04/06 12:45:27;;;;;;;10.27;7.17;;;13.00;99.90;;;;;;5047731;28;20646;-33
2023/04/06 12:47:59;;;;;;;11.03;7.37;;;13.00;99.90;;;;;;5046408;28;20311;-32